sensor_id;sensor_type;location;lat;lon;timestamp;pressure;altitude;pressure_sealevel;temperature;humidity
20710;BME280;10516;51.518;9.864;2023-05-27T00:00:22;99996.56;;;10.79;68.08
20710;BME280;10516;51.518;9.864;2023-05-27T00:02:48;100013.69;;;10.46;69.22
20710;BME280;10516;51.518;9.864;2023-05-27T00:05:13;99996.13;;;10.08;70.00
20710;BME280;10516;51.518;9.864;2023-05-27T00:07:39;100008.22;;;10.10;70.75
20710;BME280;10516;51.518;9.864;2023-05-27T00:10:04;100007.25;;;9.73;72.70
20710;BME280;10516;51.518;9.864;2023-05-27T00:12:30;99976.75;;;9.63;72.54
20710;BME280;10516;51.518;9.864;2023-05-27T00:14:55;100011.59;;;9.99;71.55
20710;BME280;10516;51.518;9.864;2023-05-27T00:17:21;99986.22;;;10.21;69.64
20710;BME280;10516;51.518;9.864;2023-05-27T00:19:46;100016.03;;;9.43;73.98
20710;BME280;10516;51.518;9.864;2023-05-27T00:22:14;100010.88;;;8.97;75.16
20710;BME280;10516;51.518;9.864;2023-05-27T00:24:40;100010.91;;;8.84;76.49
20710;BME280;10516;51.518;9.864;2023-05-27T00:27:07;100014.69;;;9.21;75.22
20710;BME280;10516;51.518;9.864;2023-05-27T00:29:33;100015.94;;;9.12;74.96
20710;BME280;10516;51.518;9.864;2023-05-27T00:32:02;100007.69;;;8.56;77.46
20710;BME280;10516;51.518;9.864;2023-05-27T00:34:29;100005.94;;;9.00;75.80
20710;BME280;10516;51.518;9.864;2023-05-27T00:36:54;100021.53;;;8.90;76.02
20710;BME280;10516;51.518;9.864;2023-05-27T00:39:19;100022.97;;;8.93;76.21
20710;BME280;10516;51.518;9.864;2023-05-27T00:41:48;100017.09;;;8.71;76.75
20710;BME280;10516;51.518;9.864;2023-05-27T00:44:16;99989.81;;;8.82;75.68
20710;BME280;10516;51.518;9.864;2023-05-27T00:46:41;100017.72;;;8.67;76.97
20710;BME280;10516;51.518;9.864;2023-05-27T00:49:07;100025.69;;;8.67;77.67
20710;BME280;10516;51.518;9.864;2023-05-27T00:51:32;100025.09;;;8.65;77.64
20710;BME280;10516;51.518;9.864;2023-05-27T00:53:58;100029.56;;;8.64;77.75
20710;BME280;10516;51.518;9.864;2023-05-27T00:56:23;100003.53;;;8.79;75.71
20710;BME280;10516;51.518;9.864;2023-05-27T00:58:51;100006.06;;;8.35;77.39
20710;BME280;10516;51.518;9.864;2023-05-27T01:01:16;100018.94;;;8.51;77.82
20710;BME280;10516;51.518;9.864;2023-05-27T01:03:42;100016.25;;;9.41;73.05
20710;BME280;10516;51.518;9.864;2023-05-27T01:06:24;100029.09;;;9.51;73.07
20710;BME280;10516;51.518;9.864;2023-05-27T01:09:13;100025.66;;;8.86;75.25
20710;BME280;10516;51.518;9.864;2023-05-27T01:11:46;100035.50;;;8.79;76.36
20710;BME280;10516;51.518;9.864;2023-05-27T01:14:14;100034.22;;;8.95;76.20
20710;BME280;10516;51.518;9.864;2023-05-27T01:16:44;100025.09;;;8.58;76.87
20710;BME280;10516;51.518;9.864;2023-05-27T01:19:21;100024.44;;;8.50;77.43
20710;BME280;10516;51.518;9.864;2023-05-27T01:21:52;100027.34;;;8.42;77.48
20710;BME280;10516;51.518;9.864;2023-05-27T01:24:19;100023.25;;;8.26;78.57
20710;BME280;10516;51.518;9.864;2023-05-27T01:26:45;100020.13;;;8.81;75.57
20710;BME280;10516;51.518;9.864;2023-05-27T01:29:10;100011.53;;;8.73;76.36
20710;BME280;10516;51.518;9.864;2023-05-27T01:31:48;100008.47;;;8.69;76.92
20710;BME280;10516;51.518;9.864;2023-05-27T01:34:19;100009.50;;;8.68;75.81
20710;BME280;10516;51.518;9.864;2023-05-27T01:36:53;100001.16;;;8.32;77.52
20710;BME280;10516;51.518;9.864;2023-05-27T01:39:22;100015.66;;;8.03;79.24
20710;BME280;10516;51.518;9.864;2023-05-27T01:41:48;100002.75;;;8.07;79.14
20710;BME280;10516;51.518;9.864;2023-05-27T01:44:16;100023.41;;;7.98;79.64
20710;BME280;10516;51.518;9.864;2023-05-27T01:46:42;99991.53;;;8.44;76.78
20710;BME280;10516;51.518;9.864;2023-05-27T01:49:09;100020.78;;;8.64;76.99
20710;BME280;10516;51.518;9.864;2023-05-27T01:51:34;100035.75;;;8.32;77.89
20710;BME280;10516;51.518;9.864;2023-05-27T01:54:00;100017.66;;;7.75;80.42
20710;BME280;10516;51.518;9.864;2023-05-27T01:56:25;100015.75;;;7.63;81.25
20710;BME280;10516;51.518;9.864;2023-05-27T01:58:51;100018.69;;;7.81;80.14
20710;BME280;10516;51.518;9.864;2023-05-27T02:01:16;100020.09;;;7.77;81.05
20710;BME280;10516;51.518;9.864;2023-05-27T02:03:42;100028.06;;;7.77;81.84
20710;BME280;10516;51.518;9.864;2023-05-27T02:06:07;100021.94;;;7.83;80.78
20710;BME280;10516;51.518;9.864;2023-05-27T02:08:33;99999.13;;;7.34;82.02
20710;BME280;10516;51.518;9.864;2023-05-27T02:10:59;100013.69;;;7.51;82.67
20710;BME280;10516;51.518;9.864;2023-05-27T02:13:24;100005.56;;;7.60;81.31
20710;BME280;10516;51.518;9.864;2023-05-27T02:15:50;99996.19;;;7.77;80.21
20710;BME280;10516;51.518;9.864;2023-05-27T02:18:15;100014.84;;;8.16;78.94
20710;BME280;10516;51.518;9.864;2023-05-27T02:20:41;99997.84;;;8.23;78.55
20710;BME280;10516;51.518;9.864;2023-05-27T02:23:07;100008.06;;;8.20;78.20
20710;BME280;10516;51.518;9.864;2023-05-27T02:25:32;100011.75;;;8.71;75.83
20710;BME280;10516;51.518;9.864;2023-05-27T02:27:58;99999.50;;;8.51;76.85
20710;BME280;10516;51.518;9.864;2023-05-27T02:30:28;100014.63;;;8.63;76.29
20710;BME280;10516;51.518;9.864;2023-05-27T02:32:54;100001.53;;;8.16;78.16
20710;BME280;10516;51.518;9.864;2023-05-27T02:35:21;100017.31;;;8.30;78.02
20710;BME280;10516;51.518;9.864;2023-05-27T02:37:46;100006.50;;;8.32;77.64
20710;BME280;10516;51.518;9.864;2023-05-27T02:40:11;99999.09;;;8.47;76.04
20710;BME280;10516;51.518;9.864;2023-05-27T02:42:37;100008.91;;;8.60;75.51
20710;BME280;10516;51.518;9.864;2023-05-27T02:45:03;100011.78;;;8.19;78.14
20710;BME280;10516;51.518;9.864;2023-05-27T02:47:28;100011.31;;;7.89;80.24
20710;BME280;10516;51.518;9.864;2023-05-27T02:49:53;100006.88;;;8.36;77.98
20710;BME280;10516;51.518;9.864;2023-05-27T02:52:19;99993.59;;;8.29;77.52
20710;BME280;10516;51.518;9.864;2023-05-27T02:54:44;99996.00;;;8.11;79.44
20710;BME280;10516;51.518;9.864;2023-05-27T02:57:10;100002.13;;;8.70;75.61
20710;BME280;10516;51.518;9.864;2023-05-27T02:59:35;99993.34;;;8.50;76.73
20710;BME280;10516;51.518;9.864;2023-05-27T03:02:00;100000.31;;;8.64;75.88
20710;BME280;10516;51.518;9.864;2023-05-27T03:04:26;100012.00;;;9.27;72.46
20710;BME280;10516;51.518;9.864;2023-05-27T03:06:51;99991.44;;;9.72;70.43
20710;BME280;10516;51.518;9.864;2023-05-27T03:09:16;100009.28;;;9.78;70.32
20710;BME280;10516;51.518;9.864;2023-05-27T03:11:42;100005.91;;;10.45;67.38
20710;BME280;10516;51.518;9.864;2023-05-27T03:14:07;99997.72;;;10.65;66.41
20710;BME280;10516;51.518;9.864;2023-05-27T03:16:33;100001.75;;;10.49;66.83
20710;BME280;10516;51.518;9.864;2023-05-27T03:18:59;100006.84;;;10.32;68.66
20710;BME280;10516;51.518;9.864;2023-05-27T03:21:24;99999.31;;;10.47;66.91
20710;BME280;10516;51.518;9.864;2023-05-27T03:23:50;99994.16;;;10.71;66.14
20710;BME280;10516;51.518;9.864;2023-05-27T03:26:15;99987.28;;;10.14;67.80
20710;BME280;10516;51.518;9.864;2023-05-27T03:28:40;100001.38;;;10.70;66.47
20710;BME280;10516;51.518;9.864;2023-05-27T03:31:06;99983.78;;;10.20;68.52
20710;BME280;10516;51.518;9.864;2023-05-27T03:33:31;99997.53;;;10.41;66.95
20710;BME280;10516;51.518;9.864;2023-05-27T03:35:57;99987.47;;;10.19;68.10
20710;BME280;10516;51.518;9.864;2023-05-27T03:38:22;99980.53;;;10.11;68.52
20710;BME280;10516;51.518;9.864;2023-05-27T03:40:48;99969.38;;;9.90;68.73
20710;BME280;10516;51.518;9.864;2023-05-27T03:43:13;100002.88;;;9.48;71.63
20710;BME280;10516;51.518;9.864;2023-05-27T03:45:38;100006.78;;;9.45;71.34
20710;BME280;10516;51.518;9.864;2023-05-27T03:48:04;99988.19;;;10.01;68.81
20710;BME280;10516;51.518;9.864;2023-05-27T03:50:32;99987.53;;;10.06;68.68
20710;BME280;10516;51.518;9.864;2023-05-27T03:52:58;99993.22;;;9.85;70.35
20710;BME280;10516;51.518;9.864;2023-05-27T03:55:23;99987.44;;;9.63;70.84
20710;BME280;10516;51.518;9.864;2023-05-27T03:57:48;99959.81;;;9.82;68.83
20710;BME280;10516;51.518;9.864;2023-05-27T04:00:14;99997.19;;;9.75;70.80
20710;BME280;10516;51.518;9.864;2023-05-27T04:02:42;99987.44;;;10.43;68.29
20710;BME280;10516;51.518;9.864;2023-05-27T04:05:08;99993.69;;;10.06;69.51
20710;BME280;10516;51.518;9.864;2023-05-27T04:07:33;99991.22;;;10.05;70.09
20710;BME280;10516;51.518;9.864;2023-05-27T04:09:59;99993.19;;;9.91;69.77
20710;BME280;10516;51.518;9.864;2023-05-27T04:12:24;100000.06;;;9.74;72.61
20710;BME280;10516;51.518;9.864;2023-05-27T04:14:50;99996.41;;;9.68;73.31
20710;BME280;10516;51.518;9.864;2023-05-27T04:17:15;99976.88;;;8.99;77.22
20710;BME280;10516;51.518;9.864;2023-05-27T04:19:42;99985.13;;;8.78;78.25
20710;BME280;10516;51.518;9.864;2023-05-27T04:22:08;99996.44;;;9.62;73.44
20710;BME280;10516;51.518;9.864;2023-05-27T04:24:33;99982.16;;;9.05;78.41
20710;BME280;10516;51.518;9.864;2023-05-27T04:26:58;99984.19;;;9.10;79.74
20710;BME280;10516;51.518;9.864;2023-05-27T04:29:24;99988.69;;;9.10;79.27
20710;BME280;10516;51.518;9.864;2023-05-27T04:31:49;99969.56;;;8.75;81.33
20710;BME280;10516;51.518;9.864;2023-05-27T04:34:15;99995.72;;;8.97;81.20
20710;BME280;10516;51.518;9.864;2023-05-27T04:36:41;99992.91;;;8.73;81.88
20710;BME280;10516;51.518;9.864;2023-05-27T04:39:07;99981.81;;;8.82;82.21
20710;BME280;10516;51.518;9.864;2023-05-27T04:41:33;100002.75;;;8.72;82.88
20710;BME280;10516;51.518;9.864;2023-05-27T04:43:58;99975.75;;;8.56;83.40
20710;BME280;10516;51.518;9.864;2023-05-27T04:46:26;100008.50;;;8.30;84.86
20710;BME280;10516;51.518;9.864;2023-05-27T04:48:54;99997.03;;;8.23;84.77
20710;BME280;10516;51.518;9.864;2023-05-27T04:51:21;99983.31;;;7.80;85.80
20710;BME280;10516;51.518;9.864;2023-05-27T04:53:46;100010.53;;;8.61;82.82
20710;BME280;10516;51.518;9.864;2023-05-27T04:56:15;100008.28;;;8.71;82.78
20710;BME280;10516;51.518;9.864;2023-05-27T04:58:45;100024.06;;;8.40;84.72
20710;BME280;10516;51.518;9.864;2023-05-27T05:01:14;99997.06;;;8.49;83.98
20710;BME280;10516;51.518;9.864;2023-05-27T05:03:44;100012.16;;;8.75;82.59
20710;BME280;10516;51.518;9.864;2023-05-27T05:06:19;100011.34;;;8.61;82.93
20710;BME280;10516;51.518;9.864;2023-05-27T05:08:44;100003.81;;;8.19;85.23
20710;BME280;10516;51.518;9.864;2023-05-27T05:11:09;100015.97;;;8.98;82.62
20710;BME280;10516;51.518;9.864;2023-05-27T05:13:35;100015.03;;;8.80;82.56
20710;BME280;10516;51.518;9.864;2023-05-27T05:16:00;99994.31;;;8.88;81.42
20710;BME280;10516;51.518;9.864;2023-05-27T05:18:26;99993.75;;;8.60;83.76
20710;BME280;10516;51.518;9.864;2023-05-27T05:20:51;100008.47;;;8.23;85.48
20710;BME280;10516;51.518;9.864;2023-05-27T05:23:16;99979.63;;;8.60;83.18
20710;BME280;10516;51.518;9.864;2023-05-27T05:25:42;99980.06;;;8.11;85.93
20710;BME280;10516;51.518;9.864;2023-05-27T05:28:07;100001.34;;;8.44;85.46
20710;BME280;10516;51.518;9.864;2023-05-27T05:30:32;99989.78;;;9.40;80.22
20710;BME280;10516;51.518;9.864;2023-05-27T05:32:58;99996.88;;;9.15;82.07
20710;BME280;10516;51.518;9.864;2023-05-27T05:35:24;99997.50;;;9.17;82.67
20710;BME280;10516;51.518;9.864;2023-05-27T05:37:49;99983.63;;;9.01;83.64
20710;BME280;10516;51.518;9.864;2023-05-27T05:40:14;99978.47;;;9.06;83.12
20710;BME280;10516;51.518;9.864;2023-05-27T05:42:40;99981.22;;;8.74;83.26
20710;BME280;10516;51.518;9.864;2023-05-27T05:45:06;99983.63;;;9.01;84.38
20710;BME280;10516;51.518;9.864;2023-05-27T05:47:32;99986.94;;;8.90;83.67
20710;BME280;10516;51.518;9.864;2023-05-27T05:49:57;99986.28;;;9.01;83.27
20710;BME280;10516;51.518;9.864;2023-05-27T05:52:22;100003.28;;;9.00;82.53
20710;BME280;10516;51.518;9.864;2023-05-27T05:54:48;99993.00;;;9.11;82.43
20710;BME280;10516;51.518;9.864;2023-05-27T05:57:13;100008.38;;;9.53;81.23
20710;BME280;10516;51.518;9.864;2023-05-27T05:59:39;99988.88;;;10.21;79.06
20710;BME280;10516;51.518;9.864;2023-05-27T06:02:04;100004.28;;;9.88;79.53
20710;BME280;10516;51.518;9.864;2023-05-27T06:04:30;100000.38;;;9.91;78.50
20710;BME280;10516;51.518;9.864;2023-05-27T06:06:55;100006.66;;;9.96;80.21
20710;BME280;10516;51.518;9.864;2023-05-27T06:09:22;99983.03;;;9.75;80.88
20710;BME280;10516;51.518;9.864;2023-05-27T06:11:48;99988.94;;;10.39;77.53
20710;BME280;10516;51.518;9.864;2023-05-27T06:14:13;100003.28;;;10.38;78.52
20710;BME280;10516;51.518;9.864;2023-05-27T06:16:38;99988.34;;;10.37;80.61
20710;BME280;10516;51.518;9.864;2023-05-27T06:19:05;100009.06;;;10.11;80.50
20710;BME280;10516;51.518;9.864;2023-05-27T06:21:31;100001.13;;;9.98;80.76
20710;BME280;10516;51.518;9.864;2023-05-27T06:23:58;100000.44;;;10.58;77.37
20710;BME280;10516;51.518;9.864;2023-05-27T06:26:23;99998.50;;;10.22;78.96
20710;BME280;10516;51.518;9.864;2023-05-27T06:28:49;99989.75;;;10.58;77.06
20710;BME280;10516;51.518;9.864;2023-05-27T06:31:14;99990.81;;;10.57;78.47
20710;BME280;10516;51.518;9.864;2023-05-27T06:33:42;99982.34;;;10.60;78.36
20710;BME280;10516;51.518;9.864;2023-05-27T06:36:08;99989.94;;;10.38;78.22
20710;BME280;10516;51.518;9.864;2023-05-27T06:38:33;100009.75;;;11.76;72.41
20710;BME280;10516;51.518;9.864;2023-05-27T06:40:59;99984.69;;;12.00;70.85
20710;BME280;10516;51.518;9.864;2023-05-27T06:43:24;100000.84;;;11.64;74.87
20710;BME280;10516;51.518;9.864;2023-05-27T06:45:49;100003.88;;;11.38;76.02
20710;BME280;10516;51.518;9.864;2023-05-27T06:48:15;99985.53;;;11.23;75.59
20710;BME280;10516;51.518;9.864;2023-05-27T06:50:40;99991.78;;;10.99;76.25
20710;BME280;10516;51.518;9.864;2023-05-27T06:53:06;99981.84;;;11.24;75.88
20710;BME280;10516;51.518;9.864;2023-05-27T06:55:31;99997.59;;;10.78;76.11
20710;BME280;10516;51.518;9.864;2023-05-27T06:57:56;99999.50;;;11.25;75.54
20710;BME280;10516;51.518;9.864;2023-05-27T07:00:22;99987.09;;;11.30;75.45
20710;BME280;10516;51.518;9.864;2023-05-27T07:02:47;99999.44;;;11.91;74.58
20710;BME280;10516;51.518;9.864;2023-05-27T07:05:12;100003.47;;;11.22;74.54
20710;BME280;10516;51.518;9.864;2023-05-27T07:07:38;99994.78;;;11.57;75.44
20710;BME280;10516;51.518;9.864;2023-05-27T07:10:03;99982.34;;;11.32;74.81
20710;BME280;10516;51.518;9.864;2023-05-27T07:12:29;99977.66;;;12.52;70.25
20710;BME280;10516;51.518;9.864;2023-05-27T07:14:54;100003.25;;;12.36;74.48
20710;BME280;10516;51.518;9.864;2023-05-27T07:17:19;99978.38;;;11.83;73.74
20710;BME280;10516;51.518;9.864;2023-05-27T07:19:45;99992.25;;;11.62;74.48
20710;BME280;10516;51.518;9.864;2023-05-27T07:22:10;99982.38;;;12.03;72.54
20710;BME280;10516;51.518;9.864;2023-05-27T07:24:35;99963.63;;;11.92;72.52
20710;BME280;10516;51.518;9.864;2023-05-27T07:27:01;99984.97;;;12.22;70.79
20710;BME280;10516;51.518;9.864;2023-05-27T07:29:26;99974.03;;;12.12;73.60
20710;BME280;10516;51.518;9.864;2023-05-27T07:31:52;99978.22;;;12.08;72.31
20710;BME280;10516;51.518;9.864;2023-05-27T07:34:18;99966.06;;;11.93;71.85
20710;BME280;10516;51.518;9.864;2023-05-27T07:36:43;99976.19;;;11.91;72.68
20710;BME280;10516;51.518;9.864;2023-05-27T07:39:08;99959.47;;;12.08;72.75
20710;BME280;10516;51.518;9.864;2023-05-27T07:41:34;99977.06;;;13.36;68.65
20710;BME280;10516;51.518;9.864;2023-05-27T07:43:59;99965.00;;;13.50;69.18
20710;BME280;10516;51.518;9.864;2023-05-27T07:46:25;99967.19;;;13.98;66.79
20710;BME280;10516;51.518;9.864;2023-05-27T07:48:50;99956.84;;;13.90;71.05
20710;BME280;10516;51.518;9.864;2023-05-27T07:51:15;99965.03;;;13.67;70.34
20710;BME280;10516;51.518;9.864;2023-05-27T07:53:41;99959.88;;;13.93;67.03
20710;BME280;10516;51.518;9.864;2023-05-27T07:56:06;99954.75;;;14.42;64.71
20710;BME280;10516;51.518;9.864;2023-05-27T07:58:32;99957.50;;;13.80;67.28
20710;BME280;10516;51.518;9.864;2023-05-27T08:00:57;99968.97;;;13.92;66.90
20710;BME280;10516;51.518;9.864;2023-05-27T08:03:23;99964.75;;;13.23;68.74
20710;BME280;10516;51.518;9.864;2023-05-27T08:05:48;99947.41;;;13.87;67.22
20710;BME280;10516;51.518;9.864;2023-05-27T08:08:13;99958.97;;;12.80;69.47
20710;BME280;10516;51.518;9.864;2023-05-27T08:10:39;99936.00;;;13.07;69.67
20710;BME280;10516;51.518;9.864;2023-05-27T08:13:04;99935.69;;;13.32;69.07
20710;BME280;10516;51.518;9.864;2023-05-27T08:15:30;99921.28;;;13.49;67.21
20710;BME280;10516;51.518;9.864;2023-05-27T08:17:55;99936.56;;;13.66;67.68
20710;BME280;10516;51.518;9.864;2023-05-27T08:20:21;99922.94;;;13.67;67.90
20710;BME280;10516;51.518;9.864;2023-05-27T08:22:46;99906.34;;;14.20;66.64
20710;BME280;10516;51.518;9.864;2023-05-27T08:25:11;99919.19;;;14.51;65.71
20710;BME280;10516;51.518;9.864;2023-05-27T08:27:50;99921.69;;;15.23;62.95
20710;BME280;10516;51.518;9.864;2023-05-27T08:30:15;99930.88;;;15.05;64.78
20710;BME280;10516;51.518;9.864;2023-05-27T08:32:41;99902.88;;;15.01;63.35
20710;BME280;10516;51.518;9.864;2023-05-27T08:35:08;99911.66;;;15.40;62.22
20710;BME280;10516;51.518;9.864;2023-05-27T08:37:34;99897.06;;;14.87;63.03
20710;BME280;10516;51.518;9.864;2023-05-27T08:40:00;99903.72;;;14.80;64.77
20710;BME280;10516;51.518;9.864;2023-05-27T08:42:25;99892.50;;;14.66;64.39
20710;BME280;10516;51.518;9.864;2023-05-27T08:44:51;99906.50;;;14.47;64.13
20710;BME280;10516;51.518;9.864;2023-05-27T08:47:16;99902.97;;;15.33;61.97
20710;BME280;10516;51.518;9.864;2023-05-27T08:49:42;99895.94;;;15.53;64.36
20710;BME280;10516;51.518;9.864;2023-05-27T08:52:09;99904.50;;;15.24;62.42
20710;BME280;10516;51.518;9.864;2023-05-27T08:54:37;99882.25;;;15.07;60.66
20710;BME280;10516;51.518;9.864;2023-05-27T08:57:06;99901.75;;;14.97;61.54
20710;BME280;10516;51.518;9.864;2023-05-27T08:59:33;99887.56;;;15.77;61.62
20710;BME280;10516;51.518;9.864;2023-05-27T09:01:59;99887.00;;;15.74;61.58
20710;BME280;10516;51.518;9.864;2023-05-27T09:04:25;99896.13;;;15.73;61.96
20710;BME280;10516;51.518;9.864;2023-05-27T09:06:51;99877.69;;;14.85;61.24
20710;BME280;10516;51.518;9.864;2023-05-27T09:09:18;99885.72;;;15.50;63.94
20710;BME280;10516;51.518;9.864;2023-05-27T09:11:44;99885.31;;;15.42;62.88
20710;BME280;10516;51.518;9.864;2023-05-27T09:14:30;99879.47;;;15.23;60.99
20710;BME280;10516;51.518;9.864;2023-05-27T09:16:56;99863.56;;;14.95;62.24
20710;BME280;10516;51.518;9.864;2023-05-27T09:19:21;99852.97;;;15.37;63.28
20710;BME280;10516;51.518;9.864;2023-05-27T09:21:51;99861.56;;;14.85;61.44
20710;BME280;10516;51.518;9.864;2023-05-27T09:24:17;99858.47;;;14.93;62.84
20710;BME280;10516;51.518;9.864;2023-05-27T09:26:42;99864.44;;;15.27;61.32
20710;BME280;10516;51.518;9.864;2023-05-27T09:29:08;99862.63;;;15.33;63.14
20710;BME280;10516;51.518;9.864;2023-05-27T09:31:40;99864.66;;;15.21;61.65
20710;BME280;10516;51.518;9.864;2023-05-27T09:34:13;99873.34;;;15.54;62.96
20710;BME280;10516;51.518;9.864;2023-05-27T09:36:46;99868.69;;;15.45;61.02
20710;BME280;10516;51.518;9.864;2023-05-27T09:39:16;99866.59;;;15.84;61.57
20710;BME280;10516;51.518;9.864;2023-05-27T09:41:42;99858.38;;;17.04;59.29
20710;BME280;10516;51.518;9.864;2023-05-27T09:44:08;99872.41;;;16.49;60.25
20710;BME280;10516;51.518;9.864;2023-05-27T09:46:34;99862.06;;;15.89;58.07
20710;BME280;10516;51.518;9.864;2023-05-27T09:49:00;99859.75;;;15.66;59.07
20710;BME280;10516;51.518;9.864;2023-05-27T09:51:27;99848.22;;;15.75;59.08
20710;BME280;10516;51.518;9.864;2023-05-27T09:53:53;99856.88;;;16.19;61.06
20710;BME280;10516;51.518;9.864;2023-05-27T09:56:23;99846.91;;;16.15;57.90
20710;BME280;10516;51.518;9.864;2023-05-27T09:58:49;99853.22;;;16.40;60.70
20710;BME280;10516;51.518;9.864;2023-05-27T10:01:14;99859.06;;;17.81;57.72
20710;BME280;10516;51.518;9.864;2023-05-27T10:03:43;99833.13;;;17.80;56.18
20710;BME280;10516;51.518;9.864;2023-05-27T10:06:11;99846.78;;;17.08;57.92
20710;BME280;10516;51.518;9.864;2023-05-27T10:08:38;99844.38;;;17.17;57.23
20710;BME280;10516;51.518;9.864;2023-05-27T10:11:04;99841.50;;;17.54;56.69
20710;BME280;10516;51.518;9.864;2023-05-27T10:13:30;99851.31;;;16.93;56.51
20710;BME280;10516;51.518;9.864;2023-05-27T10:15:55;99818.97;;;16.88;56.97
20710;BME280;10516;51.518;9.864;2023-05-27T10:18:28;99818.19;;;17.12;57.28
20710;BME280;10516;51.518;9.864;2023-05-27T10:20:56;99836.63;;;17.61;56.72
20710;BME280;10516;51.518;9.864;2023-05-27T10:23:24;99814.19;;;17.35;55.16
20710;BME280;10516;51.518;9.864;2023-05-27T10:26:00;99807.75;;;17.61;54.94
20710;BME280;10516;51.518;9.864;2023-05-27T10:28:34;99817.66;;;17.00;57.00
20710;BME280;10516;51.518;9.864;2023-05-27T10:31:16;99805.22;;;16.89;56.43
20710;BME280;10516;51.518;9.864;2023-05-27T10:33:46;99803.94;;;17.27;57.34
20710;BME280;10516;51.518;9.864;2023-05-27T10:36:17;99814.78;;;17.57;54.76
20710;BME280;10516;51.518;9.864;2023-05-27T10:41:22;99810.16;;;17.78;55.20
20710;BME280;10516;51.518;9.864;2023-05-27T10:43:57;99800.91;;;18.19;54.97
20710;BME280;10516;51.518;9.864;2023-05-27T10:46:23;99797.41;;;18.14;53.55
20710;BME280;10516;51.518;9.864;2023-05-27T10:48:49;99789.59;;;18.81;52.12
20710;BME280;10516;51.518;9.864;2023-05-27T10:51:14;99785.00;;;18.77;52.96
20710;BME280;10516;51.518;9.864;2023-05-27T10:53:40;99788.31;;;18.68;51.21
20710;BME280;10516;51.518;9.864;2023-05-27T10:56:06;99773.84;;;18.93;51.93
20710;BME280;10516;51.518;9.864;2023-05-27T10:58:36;99789.06;;;18.79;51.73
20710;BME280;10516;51.518;9.864;2023-05-27T11:01:10;99784.16;;;18.86;51.39
20710;BME280;10516;51.518;9.864;2023-05-27T11:03:45;99786.63;;;18.83;51.64
20710;BME280;10516;51.518;9.864;2023-05-27T11:06:13;99768.00;;;18.76;50.57
20710;BME280;10516;51.518;9.864;2023-05-27T11:08:40;99763.31;;;19.25;51.69
20710;BME280;10516;51.518;9.864;2023-05-27T11:11:07;99771.63;;;19.96;50.11
20710;BME280;10516;51.518;9.864;2023-05-27T11:13:36;99774.59;;;20.00;49.44
20710;BME280;10516;51.518;9.864;2023-05-27T11:16:05;99775.75;;;20.17;49.22
20710;BME280;10516;51.518;9.864;2023-05-27T11:18:48;99760.31;;;19.66;50.37
20710;BME280;10516;51.518;9.864;2023-05-27T11:21:15;99758.38;;;18.99;49.15
20710;BME280;10516;51.518;9.864;2023-05-27T11:23:48;99736.28;;;18.87;50.66
20710;BME280;10516;51.518;9.864;2023-05-27T11:26:17;99758.41;;;19.90;50.60
20710;BME280;10516;51.518;9.864;2023-05-27T11:28:52;99752.69;;;20.44;49.11
20710;BME280;10516;51.518;9.864;2023-05-27T11:31:21;99741.34;;;20.98;48.63
20710;BME280;10516;51.518;9.864;2023-05-27T11:33:49;99752.13;;;19.94;50.20
20710;BME280;10516;51.518;9.864;2023-05-27T11:36:15;99740.13;;;20.90;47.46
20710;BME280;10516;51.518;9.864;2023-05-27T11:41:13;99749.13;;;20.67;48.37
20710;BME280;10516;51.518;9.864;2023-05-27T11:43:49;99721.84;;;20.77;45.88
20710;BME280;10516;51.518;9.864;2023-05-27T11:46:15;99745.94;;;20.41;48.34
20710;BME280;10516;51.518;9.864;2023-05-27T11:48:41;99734.09;;;20.74;46.88
20710;BME280;10516;51.518;9.864;2023-05-27T11:51:06;99746.50;;;20.62;46.00
20710;BME280;10516;51.518;9.864;2023-05-27T11:53:32;99738.25;;;20.48;47.51
20710;BME280;10516;51.518;9.864;2023-05-27T11:55:57;99733.38;;;20.87;47.00
20710;BME280;10516;51.518;9.864;2023-05-27T11:58:22;99728.16;;;20.72;47.00
20710;BME280;10516;51.518;9.864;2023-05-27T12:00:48;99722.34;;;20.98;47.14
20710;BME280;10516;51.518;9.864;2023-05-27T12:03:13;99716.97;;;20.92;46.68
20710;BME280;10516;51.518;9.864;2023-05-27T12:05:38;99678.72;;;20.94;46.29
20710;BME280;10516;51.518;9.864;2023-05-27T12:08:04;99696.44;;;21.24;46.33
20710;BME280;10516;51.518;9.864;2023-05-27T12:10:30;99691.97;;;20.96;46.27
20710;BME280;10516;51.518;9.864;2023-05-27T12:13:05;99695.84;;;21.27;46.09
20710;BME280;10516;51.518;9.864;2023-05-27T12:15:31;99691.66;;;21.48;46.31
20710;BME280;10516;51.518;9.864;2023-05-27T12:17:57;99693.94;;;21.73;45.63
20710;BME280;10516;51.518;9.864;2023-05-27T12:20:23;99684.00;;;21.50;44.66
20710;BME280;10516;51.518;9.864;2023-05-27T12:22:53;99678.16;;;21.43;45.46
20710;BME280;10516;51.518;9.864;2023-05-27T12:25:18;99672.22;;;21.41;45.53
20710;BME280;10516;51.518;9.864;2023-05-27T12:27:44;99670.97;;;21.79;45.21
20710;BME280;10516;51.518;9.864;2023-05-27T12:30:10;99655.69;;;21.83;44.72
20710;BME280;10516;51.518;9.864;2023-05-27T12:32:35;99657.28;;;22.11;43.54
20710;BME280;10516;51.518;9.864;2023-05-27T12:35:01;99664.75;;;22.91;43.96
20710;BME280;10516;51.518;9.864;2023-05-27T12:37:26;99660.19;;;22.28;41.81
20710;BME280;10516;51.518;9.864;2023-05-27T12:39:53;99650.41;;;22.27;43.33
20710;BME280;10516;51.518;9.864;2023-05-27T12:42:18;99648.09;;;22.70;41.91
20710;BME280;10516;51.518;9.864;2023-05-27T12:44:44;99664.94;;;22.72;41.80
20710;BME280;10516;51.518;9.864;2023-05-27T12:47:09;99664.88;;;22.86;40.49
20710;BME280;10516;51.518;9.864;2023-05-27T12:49:36;99666.84;;;22.94;44.19
20710;BME280;10516;51.518;9.864;2023-05-27T12:52:01;99651.84;;;23.49;40.75
20710;BME280;10516;51.518;9.864;2023-05-27T12:54:28;99650.56;;;23.25;40.54
20710;BME280;10516;51.518;9.864;2023-05-27T12:56:53;99655.59;;;23.62;43.07
20710;BME280;10516;51.518;9.864;2023-05-27T12:59:19;99641.88;;;23.45;41.65
20710;BME280;10516;51.518;9.864;2023-05-27T13:01:45;99653.84;;;23.66;42.41
20710;BME280;10516;51.518;9.864;2023-05-27T13:04:10;99645.84;;;24.17;41.20